sensor_id;sensor_type;location;lat;lon;timestamp;temperature;humidity
19090;DHT22;9677;50.656;13.064;2023-06-14T00:02:21;18.90;37.30
19090;DHT22;9677;50.656;13.064;2023-06-14T00:04:51;18.90;37.40
19090;DHT22;9677;50.656;13.064;2023-06-14T00:07:27;18.90;37.40
19090;DHT22;9677;50.656;13.064;2023-06-14T00:10:02;18.80;37.50
19090;DHT22;9677;50.656;13.064;2023-06-14T00:12:31;18.80;37.50
19090;DHT22;9677;50.656;13.064;2023-06-14T00:14:59;18.80;37.50
19090;DHT22;9677;50.656;13.064;2023-06-14T00:17:28;18.70;37.40
19090;DHT22;9677;50.656;13.064;2023-06-14T00:19:59;18.70;37.50
19090;DHT22;9677;50.656;13.064;2023-06-14T00:22:31;18.60;37.60
19090;DHT22;9677;50.656;13.064;2023-06-14T00:24:59;18.60;37.60
19090;DHT22;9677;50.656;13.064;2023-06-14T00:27:48;18.60;37.70
19090;DHT22;9677;50.656;13.064;2023-06-14T00:30:17;18.60;37.80
19090;DHT22;9677;50.656;13.064;2023-06-14T00:32:45;18.50;37.80
19090;DHT22;9677;50.656;13.064;2023-06-14T00:35:15;18.50;37.80
19090;DHT22;9677;50.656;13.064;2023-06-14T00:37:43;18.50;38.00
19090;DHT22;9677;50.656;13.064;2023-06-14T00:40:11;18.40;37.80
19090;DHT22;9677;50.656;13.064;2023-06-14T00:42:40;18.40;37.90
19090;DHT22;9677;50.656;13.064;2023-06-14T00:45:10;18.40;38.00
19090;DHT22;9677;50.656;13.064;2023-06-14T00:47:38;18.30;38.00
19090;DHT22;9677;50.656;13.064;2023-06-14T00:50:09;18.30;38.10
19090;DHT22;9677;50.656;13.064;2023-06-14T00:52:39;18.20;38.10
19090;DHT22;9677;50.656;13.064;2023-06-14T00:55:08;18.20;38.10
19090;DHT22;9677;50.656;13.064;2023-06-14T00:57:36;18.10;38.10
19090;DHT22;9677;50.656;13.064;2023-06-14T01:00:07;18.10;38.10
19090;DHT22;9677;50.656;13.064;2023-06-14T01:02:37;18.10;38.20
19090;DHT22;9677;50.656;13.064;2023-06-14T01:05:09;18.00;38.20
19090;DHT22;9677;50.656;13.064;2023-06-14T01:07:51;18.00;38.30
19090;DHT22;9677;50.656;13.064;2023-06-14T01:10:38;17.90;38.60
19090;DHT22;9677;50.656;13.064;2023-06-14T01:13:14;17.90;38.60
19090;DHT22;9677;50.656;13.064;2023-06-14T01:15:47;17.90;38.50
19090;DHT22;9677;50.656;13.064;2023-06-14T01:18:16;17.90;38.40
19090;DHT22;9677;50.656;13.064;2023-06-14T01:20:46;17.80;38.50
19090;DHT22;9677;50.656;13.064;2023-06-14T01:23:19;17.80;38.50
19090;DHT22;9677;50.656;13.064;2023-06-14T01:25:48;17.70;38.60
19090;DHT22;9677;50.656;13.064;2023-06-14T01:28:20;17.70;38.50
19090;DHT22;9677;50.656;13.064;2023-06-14T01:30:50;17.70;38.60
19090;DHT22;9677;50.656;13.064;2023-06-14T01:33:21;17.70;38.70
19090;DHT22;9677;50.656;13.064;2023-06-14T01:35:51;17.60;38.60
19090;DHT22;9677;50.656;13.064;2023-06-14T01:38:23;17.60;38.60
19090;DHT22;9677;50.656;13.064;2023-06-14T01:40:54;17.60;38.80
19090;DHT22;9677;50.656;13.064;2023-06-14T01:43:25;17.60;38.70
19090;DHT22;9677;50.656;13.064;2023-06-14T01:45:55;17.50;38.70
19090;DHT22;9677;50.656;13.064;2023-06-14T01:48:26;17.50;38.80
19090;DHT22;9677;50.656;13.064;2023-06-14T01:50:54;17.40;38.80
19090;DHT22;9677;50.656;13.064;2023-06-14T01:53:24;17.40;38.80
19090;DHT22;9677;50.656;13.064;2023-06-14T01:55:52;17.30;38.80
19090;DHT22;9677;50.656;13.064;2023-06-14T01:58:21;17.30;38.80
19090;DHT22;9677;50.656;13.064;2023-06-14T02:00:50;17.20;38.90
19090;DHT22;9677;50.656;13.064;2023-06-14T02:03:22;17.10;38.80
19090;DHT22;9677;50.656;13.064;2023-06-14T02:05:52;17.10;38.90
19090;DHT22;9677;50.656;13.064;2023-06-14T02:08:21;17.10;39.00
19090;DHT22;9677;50.656;13.064;2023-06-14T02:10:51;17.10;39.00
19090;DHT22;9677;50.656;13.064;2023-06-14T02:13:21;17.00;39.10
19090;DHT22;9677;50.656;13.064;2023-06-14T02:15:50;17.00;39.10
19090;DHT22;9677;50.656;13.064;2023-06-14T02:18:22;16.90;39.10
19090;DHT22;9677;50.656;13.064;2023-06-14T02:20:50;16.90;39.10
19090;DHT22;9677;50.656;13.064;2023-06-14T02:23:18;16.80;39.20
19090;DHT22;9677;50.656;13.064;2023-06-14T02:25:47;16.80;39.30
19090;DHT22;9677;50.656;13.064;2023-06-14T02:28:16;16.70;39.30
19090;DHT22;9677;50.656;13.064;2023-06-14T02:30:44;16.70;39.40
19090;DHT22;9677;50.656;13.064;2023-06-14T02:33:12;16.60;39.40
19090;DHT22;9677;50.656;13.064;2023-06-14T02:35:40;16.60;39.40
19090;DHT22;9677;50.656;13.064;2023-06-14T02:38:08;16.60;39.50
19090;DHT22;9677;50.656;13.064;2023-06-14T02:40:36;16.50;39.60
19090;DHT22;9677;50.656;13.064;2023-06-14T02:43:04;16.50;39.60
19090;DHT22;9677;50.656;13.064;2023-06-14T02:45:34;16.50;39.70
19090;DHT22;9677;50.656;13.064;2023-06-14T02:48:02;16.40;39.70
19090;DHT22;9677;50.656;13.064;2023-06-14T02:50:32;16.40;39.80
19090;DHT22;9677;50.656;13.064;2023-06-14T02:53:00;16.40;39.80
19090;DHT22;9677;50.656;13.064;2023-06-14T02:55:29;16.40;39.80
19090;DHT22;9677;50.656;13.064;2023-06-14T02:57:57;16.40;39.80
19090;DHT22;9677;50.656;13.064;2023-06-14T03:00:25;16.30;39.80
19090;DHT22;9677;50.656;13.064;2023-06-14T03:02:58;16.30;39.90
19090;DHT22;9677;50.656;13.064;2023-06-14T03:05:28;16.30;39.90
19090;DHT22;9677;50.656;13.064;2023-06-14T03:07:57;16.30;39.80
19090;DHT22;9677;50.656;13.064;2023-06-14T03:10:25;16.30;39.90
19090;DHT22;9677;50.656;13.064;2023-06-14T03:12:57;16.30;40.20
19090;DHT22;9677;50.656;13.064;2023-06-14T03:15:25;16.20;39.90
19090;DHT22;9677;50.656;13.064;2023-06-14T03:17:54;16.20;40.00
19090;DHT22;9677;50.656;13.064;2023-06-14T03:20:24;16.10;40.00
19090;DHT22;9677;50.656;13.064;2023-06-14T03:22:56;16.10;40.00
19090;DHT22;9677;50.656;13.064;2023-06-14T03:25:24;16.10;40.00
19090;DHT22;9677;50.656;13.064;2023-06-14T03:27:56;16.00;40.00
19090;DHT22;9677;50.656;13.064;2023-06-14T03:30:24;16.00;40.10
19090;DHT22;9677;50.656;13.064;2023-06-14T03:32:52;15.90;40.10
19090;DHT22;9677;50.656;13.064;2023-06-14T03:35:25;15.90;40.20
19090;DHT22;9677;50.656;13.064;2023-06-14T03:37:53;15.90;40.20
19090;DHT22;9677;50.656;13.064;2023-06-14T03:40:21;15.80;40.20
19090;DHT22;9677;50.656;13.064;2023-06-14T03:42:59;15.80;40.20
19090;DHT22;9677;50.656;13.064;2023-06-14T03:45:27;15.70;40.20
19090;DHT22;9677;50.656;13.064;2023-06-14T03:47:56;15.70;40.30
19090;DHT22;9677;50.656;13.064;2023-06-14T03:50:27;15.60;40.30
19090;DHT22;9677;50.656;13.064;2023-06-14T03:52:55;15.60;40.50
19090;DHT22;9677;50.656;13.064;2023-06-14T03:55:23;15.50;40.50
19090;DHT22;9677;50.656;13.064;2023-06-14T03:57:58;15.50;40.60
19090;DHT22;9677;50.656;13.064;2023-06-14T04:00:27;15.40;40.70
19090;DHT22;9677;50.656;13.064;2023-06-14T04:02:55;15.40;40.80
19090;DHT22;9677;50.656;13.064;2023-06-14T04:05:23;15.40;40.90
19090;DHT22;9677;50.656;13.064;2023-06-14T04:07:55;15.30;40.90
19090;DHT22;9677;50.656;13.064;2023-06-14T04:10:24;15.30;41.00
19090;DHT22;9677;50.656;13.064;2023-06-14T04:12:52;15.30;41.00
19090;DHT22;9677;50.656;13.064;2023-06-14T04:15:21;15.30;41.10
19090;DHT22;9677;50.656;13.064;2023-06-14T04:17:52;15.20;41.10
19090;DHT22;9677;50.656;13.064;2023-06-14T04:20:24;15.20;41.20
19090;DHT22;9677;50.656;13.064;2023-06-14T04:22:53;15.20;41.30
19090;DHT22;9677;50.656;13.064;2023-06-14T04:25:25;15.10;41.30
19090;DHT22;9677;50.656;13.064;2023-06-14T04:27:55;15.10;41.40
19090;DHT22;9677;50.656;13.064;2023-06-14T04:30:24;15.10;41.50
19090;DHT22;9677;50.656;13.064;2023-06-14T04:32:54;15.00;41.50
19090;DHT22;9677;50.656;13.064;2023-06-14T04:35:23;15.00;41.60
19090;DHT22;9677;50.656;13.064;2023-06-14T04:37:53;15.00;41.80
19090;DHT22;9677;50.656;13.064;2023-06-14T04:40:21;15.00;41.80
19090;DHT22;9677;50.656;13.064;2023-06-14T04:42:51;14.90;41.80
19090;DHT22;9677;50.656;13.064;2023-06-14T04:45:19;14.90;41.90
19090;DHT22;9677;50.656;13.064;2023-06-14T04:47:49;14.90;41.90
19090;DHT22;9677;50.656;13.064;2023-06-14T04:50:22;14.90;42.10
19090;DHT22;9677;50.656;13.064;2023-06-14T04:52:50;14.90;42.10
19090;DHT22;9677;50.656;13.064;2023-06-14T04:55:20;14.90;42.20
19090;DHT22;9677;50.656;13.064;2023-06-14T04:57:48;14.90;42.30
19090;DHT22;9677;50.656;13.064;2023-06-14T05:00:21;14.90;42.40
19090;DHT22;9677;50.656;13.064;2023-06-14T05:02:50;14.90;42.50
19090;DHT22;9677;50.656;13.064;2023-06-14T05:05:20;14.90;42.50
19090;DHT22;9677;50.656;13.064;2023-06-14T05:07:48;14.90;42.50
19090;DHT22;9677;50.656;13.064;2023-06-14T05:10:17;14.90;42.60
19090;DHT22;9677;50.656;13.064;2023-06-14T05:12:46;14.90;42.70
19090;DHT22;9677;50.656;13.064;2023-06-14T05:15:16;14.90;42.70
19090;DHT22;9677;50.656;13.064;2023-06-14T05:17:46;15.00;42.70
19090;DHT22;9677;50.656;13.064;2023-06-14T05:20:20;14.90;42.90
19090;DHT22;9677;50.656;13.064;2023-06-14T05:22:49;15.00;42.90
19090;DHT22;9677;50.656;13.064;2023-06-14T05:25:18;15.00;43.00
19090;DHT22;9677;50.656;13.064;2023-06-14T05:27:47;15.00;43.00
19090;DHT22;9677;50.656;13.064;2023-06-14T05:30:16;15.00;43.10
19090;DHT22;9677;50.656;13.064;2023-06-14T05:32:46;15.00;43.10
19090;DHT22;9677;50.656;13.064;2023-06-14T05:35:15;15.00;43.30
19090;DHT22;9677;50.656;13.064;2023-06-14T05:37:43;15.10;43.30
19090;DHT22;9677;50.656;13.064;2023-06-14T05:40:12;15.00;43.30
19090;DHT22;9677;50.656;13.064;2023-06-14T05:42:40;15.10;43.50
19090;DHT22;9677;50.656;13.064;2023-06-14T05:45:08;15.10;43.50
19090;DHT22;9677;50.656;13.064;2023-06-14T05:47:36;15.10;43.60
19090;DHT22;9677;50.656;13.064;2023-06-14T05:50:06;15.10;43.60
19090;DHT22;9677;50.656;13.064;2023-06-14T05:52:35;15.10;44.00
19090;DHT22;9677;50.656;13.064;2023-06-14T05:55:04;15.10;43.70
19090;DHT22;9677;50.656;13.064;2023-06-14T05:57:32;15.20;43.90
19090;DHT22;9677;50.656;13.064;2023-06-14T06:00:00;15.20;44.00
19090;DHT22;9677;50.656;13.064;2023-06-14T06:02:38;15.30;44.00
19090;DHT22;9677;50.656;13.064;2023-06-14T06:05:07;15.30;44.00
19090;DHT22;9677;50.656;13.064;2023-06-14T06:07:36;15.30;44.20
19090;DHT22;9677;50.656;13.064;2023-06-14T06:10:05;15.30;44.20
19090;DHT22;9677;50.656;13.064;2023-06-14T06:12:34;15.40;44.30
19090;DHT22;9677;50.656;13.064;2023-06-14T06:15:02;15.40;44.20
19090;DHT22;9677;50.656;13.064;2023-06-14T06:17:31;15.50;44.40
19090;DHT22;9677;50.656;13.064;2023-06-14T06:20:20;15.50;44.40
19090;DHT22;9677;50.656;13.064;2023-06-14T06:22:54;15.60;44.40
19090;DHT22;9677;50.656;13.064;2023-06-14T06:25:23;15.60;44.40
19090;DHT22;9677;50.656;13.064;2023-06-14T06:27:53;15.70;44.50
19090;DHT22;9677;50.656;13.064;2023-06-14T06:30:22;15.70;44.50
19090;DHT22;9677;50.656;13.064;2023-06-14T06:32:51;15.80;44.60
19090;DHT22;9677;50.656;13.064;2023-06-14T06:35:21;15.90;44.60
19090;DHT22;9677;50.656;13.064;2023-06-14T06:37:49;15.90;44.80
19090;DHT22;9677;50.656;13.064;2023-06-14T06:40:17;16.00;44.80
19090;DHT22;9677;50.656;13.064;2023-06-14T06:42:45;16.00;44.70
19090;DHT22;9677;50.656;13.064;2023-06-14T06:45:15;16.10;44.80
19090;DHT22;9677;50.656;13.064;2023-06-14T06:47:43;16.20;44.80
19090;DHT22;9677;50.656;13.064;2023-06-14T06:50:11;16.30;44.90
19090;DHT22;9677;50.656;13.064;2023-06-14T06:52:40;16.30;44.90
19090;DHT22;9677;50.656;13.064;2023-06-14T06:55:09;16.40;45.10
19090;DHT22;9677;50.656;13.064;2023-06-14T06:57:38;16.50;45.10
19090;DHT22;9677;50.656;13.064;2023-06-14T07:00:07;16.60;45.30
19090;DHT22;9677;50.656;13.064;2023-06-14T07:02:37;16.60;45.20
19090;DHT22;9677;50.656;13.064;2023-06-14T07:05:05;16.70;45.00
19090;DHT22;9677;50.656;13.064;2023-06-14T07:07:34;16.80;45.20
19090;DHT22;9677;50.656;13.064;2023-06-14T07:10:04;16.90;45.30
19090;DHT22;9677;50.656;13.064;2023-06-14T07:12:32;16.90;45.20
19090;DHT22;9677;50.656;13.064;2023-06-14T07:15:06;17.10;45.20
19090;DHT22;9677;50.656;13.064;2023-06-14T07:17:35;17.10;45.20
19090;DHT22;9677;50.656;13.064;2023-06-14T07:20:05;17.20;45.20
19090;DHT22;9677;50.656;13.064;2023-06-14T07:22:40;17.30;45.40
19090;DHT22;9677;50.656;13.064;2023-06-14T07:25:10;17.40;45.40
19090;DHT22;9677;50.656;13.064;2023-06-14T07:27:41;17.60;45.60
19090;DHT22;9677;50.656;13.064;2023-06-14T07:30:10;17.70;45.60
19090;DHT22;9677;50.656;13.064;2023-06-14T07:32:39;17.90;45.90
19090;DHT22;9677;50.656;13.064;2023-06-14T07:35:08;18.10;45.90
19090;DHT22;9677;50.656;13.064;2023-06-14T07:37:36;18.40;46.00
19090;DHT22;9677;50.656;13.064;2023-06-14T07:40:05;18.60;46.00
19090;DHT22;9677;50.656;13.064;2023-06-14T07:42:36;18.80;46.00
19090;DHT22;9677;50.656;13.064;2023-06-14T07:45:05;19.20;46.10
19090;DHT22;9677;50.656;13.064;2023-06-14T07:47:34;19.40;46.00
19090;DHT22;9677;50.656;13.064;2023-06-14T07:50:02;19.80;45.90
19090;DHT22;9677;50.656;13.064;2023-06-14T07:52:32;20.10;45.70
19090;DHT22;9677;50.656;13.064;2023-06-14T07:55:00;20.30;45.30
19090;DHT22;9677;50.656;13.064;2023-06-14T07:57:28;20.80;45.00
19090;DHT22;9677;50.656;13.064;2023-06-14T07:59:58;21.00;44.70
19090;DHT22;9677;50.656;13.064;2023-06-14T08:02:26;21.20;44.50
19090;DHT22;9677;50.656;13.064;2023-06-14T08:04:54;21.50;44.20
19090;DHT22;9677;50.656;13.064;2023-06-14T08:07:22;21.70;43.90
19090;DHT22;9677;50.656;13.064;2023-06-14T08:09:50;22.00;43.50
19090;DHT22;9677;50.656;13.064;2023-06-14T08:12:18;22.20;43.40
19090;DHT22;9677;50.656;13.064;2023-06-14T08:14:46;22.40;43.10
19090;DHT22;9677;50.656;13.064;2023-06-14T08:17:28;22.60;42.70
19090;DHT22;9677;50.656;13.064;2023-06-14T08:19:56;22.90;42.40
19090;DHT22;9677;50.656;13.064;2023-06-14T08:22:25;23.10;42.10
19090;DHT22;9677;50.656;13.064;2023-06-14T08:24:54;23.30;41.90
19090;DHT22;9677;50.656;13.064;2023-06-14T08:27:22;23.50;41.80
19090;DHT22;9677;50.656;13.064;2023-06-14T08:29:50;23.70;41.70
19090;DHT22;9677;50.656;13.064;2023-06-14T08:32:18;23.90;41.50
19090;DHT22;9677;50.656;13.064;2023-06-14T08:34:48;24.00;41.40
19090;DHT22;9677;50.656;13.064;2023-06-14T08:37:30;24.30;41.40
19090;DHT22;9677;50.656;13.064;2023-06-14T08:40:00;24.60;41.30
19090;DHT22;9677;50.656;13.064;2023-06-14T08:42:33;24.80;40.60
19090;DHT22;9677;50.656;13.064;2023-06-14T08:45:03;24.90;40.20
19090;DHT22;9677;50.656;13.064;2023-06-14T08:47:32;25.10;39.90
19090;DHT22;9677;50.656;13.064;2023-06-14T08:50:09;25.30;39.70
19090;DHT22;9677;50.656;13.064;2023-06-14T08:52:55;25.40;39.40
19090;DHT22;9677;50.656;13.064;2023-06-14T08:55:27;25.60;39.50
19090;DHT22;9677;50.656;13.064;2023-06-14T08:57:59;25.80;39.60
19090;DHT22;9677;50.656;13.064;2023-06-14T09:00:31;26.00;39.50
19090;DHT22;9677;50.656;13.064;2023-06-14T09:03:01;26.20;39.40
19090;DHT22;9677;50.656;13.064;2023-06-14T09:05:31;26.40;39.40
19090;DHT22;9677;50.656;13.064;2023-06-14T09:07:59;26.60;39.30
19090;DHT22;9677;50.656;13.064;2023-06-14T09:10:33;26.80;38.90
19090;DHT22;9677;50.656;13.064;2023-06-14T09:13:02;27.00;38.70
19090;DHT22;9677;50.656;13.064;2023-06-14T09:15:30;27.20;38.20
19090;DHT22;9677;50.656;13.064;2023-06-14T09:18:01;27.30;38.00
19090;DHT22;9677;50.656;13.064;2023-06-14T09:20:31;27.50;37.90
19090;DHT22;9677;50.656;13.064;2023-06-14T09:23:00;27.70;37.80
19090;DHT22;9677;50.656;13.064;2023-06-14T09:25:28;27.80;37.60
19090;DHT22;9677;50.656;13.064;2023-06-14T09:28:06;28.00;37.40
19090;DHT22;9677;50.656;13.064;2023-06-14T09:30:36;28.10;36.80
19090;DHT22;9677;50.656;13.064;2023-06-14T09:33:05;28.20;36.60
19090;DHT22;9677;50.656;13.064;2023-06-14T09:35:35;28.40;36.60
19090;DHT22;9677;50.656;13.064;2023-06-14T09:38:03;28.50;36.50
19090;DHT22;9677;50.656;13.064;2023-06-14T09:40:35;28.60;36.30
19090;DHT22;9677;50.656;13.064;2023-06-14T09:43:07;28.70;36.20
19090;DHT22;9677;50.656;13.064;2023-06-14T09:45:37;28.80;36.10
19090;DHT22;9677;50.656;13.064;2023-06-14T09:48:07;28.90;36.10
19090;DHT22;9677;50.656;13.064;2023-06-14T09:50:39;29.10;36.10
19090;DHT22;9677;50.656;13.064;2023-06-14T09:53:09;29.30;35.70
19090;DHT22;9677;50.656;13.064;2023-06-14T09:55:40;29.40;35.80
19090;DHT22;9677;50.656;13.064;2023-06-14T09:58:10;29.60;35.40
19090;DHT22;9677;50.656;13.064;2023-06-14T10:00:40;29.70;35.30
19090;DHT22;9677;50.656;13.064;2023-06-14T10:03:16;29.90;35.20
19090;DHT22;9677;50.656;13.064;2023-06-14T10:05:50;30.00;34.50
19090;DHT22;9677;50.656;13.064;2023-06-14T10:08:20;30.10;34.80
19090;DHT22;9677;50.656;13.064;2023-06-14T10:10:53;30.30;34.60
19090;DHT22;9677;50.656;13.064;2023-06-14T10:13:23;30.40;34.30
19090;DHT22;9677;50.656;13.064;2023-06-14T10:15:57;30.40;34.20
19090;DHT22;9677;50.656;13.064;2023-06-14T10:18:33;30.50;33.70
19090;DHT22;9677;50.656;13.064;2023-06-14T10:21:13;30.60;33.70
19090;DHT22;9677;50.656;13.064;2023-06-14T10:23:45;30.60;33.70
19090;DHT22;9677;50.656;13.064;2023-06-14T10:26:21;30.80;33.70
19090;DHT22;9677;50.656;13.064;2023-06-14T10:28:57;30.80;32.40
19090;DHT22;9677;50.656;13.064;2023-06-14T10:31:44;30.90;33.00
19090;DHT22;9677;50.656;13.064;2023-06-14T10:34:21;31.00;32.50
19090;DHT22;9677;50.656;13.064;2023-06-14T10:37:03;31.10;32.80
19090;DHT22;9677;50.656;13.064;2023-06-14T10:39:33;31.20;32.50
19090;DHT22;9677;50.656;13.064;2023-06-14T10:42:06;31.30;33.00
19090;DHT22;9677;50.656;13.064;2023-06-14T10:44:39;31.40;32.80
19090;DHT22;9677;50.656;13.064;2023-06-14T10:47:10;31.50;32.30
19090;DHT22;9677;50.656;13.064;2023-06-14T10:49:42;31.60;32.20
19090;DHT22;9677;50.656;13.064;2023-06-14T10:52:14;31.60;31.90
19090;DHT22;9677;50.656;13.064;2023-06-14T10:54:59;31.60;31.50
19090;DHT22;9677;50.656;13.064;2023-06-14T10:57:33;31.70;31.40
19090;DHT22;9677;50.656;13.064;2023-06-14T11:00:17;31.70;31.20
19090;DHT22;9677;50.656;13.064;2023-06-14T11:03:00;31.70;31.30
19090;DHT22;9677;50.656;13.064;2023-06-14T11:05:50;31.70;31.30
19090;DHT22;9677;50.656;13.064;2023-06-14T11:09:08;31.70;31.50
19090;DHT22;9677;50.656;13.064;2023-06-14T11:11:48;31.80;30.70
19090;DHT22;9677;50.656;13.064;2023-06-14T11:14:17;31.90;31.50
19090;DHT22;9677;50.656;13.064;2023-06-14T11:16:48;32.00;31.00
19090;DHT22;9677;50.656;13.064;2023-06-14T11:19:16;32.10;30.60
19090;DHT22;9677;50.656;13.064;2023-06-14T11:21:47;32.10;30.80
19090;DHT22;9677;50.656;13.064;2023-06-14T11:24:17;32.20;30.40
19090;DHT22;9677;50.656;13.064;2023-06-14T11:26:47;32.20;30.50
19090;DHT22;9677;50.656;13.064;2023-06-14T11:29:16;32.30;30.30
19090;DHT22;9677;50.656;13.064;2023-06-14T11:31:45;32.30;30.40
19090;DHT22;9677;50.656;13.064;2023-06-14T11:34:13;32.40;30.20
19090;DHT22;9677;50.656;13.064;2023-06-14T11:36:42;32.40;30.30
19090;DHT22;9677;50.656;13.064;2023-06-14T11:39:10;32.50;30.40
19090;DHT22;9677;50.656;13.064;2023-06-14T11:41:41;32.50;30.20
19090;DHT22;9677;50.656;13.064;2023-06-14T11:44:10;32.60;30.00
19090;DHT22;9677;50.656;13.064;2023-06-14T11:46:39;32.70;30.00
19090;DHT22;9677;50.656;13.064;2023-06-14T11:49:08;32.70;29.90
19090;DHT22;9677;50.656;13.064;2023-06-14T11:51:37;32.80;30.00
19090;DHT22;9677;50.656;13.064;2023-06-14T11:54:06;32.80;29.70
19090;DHT22;9677;50.656;13.064;2023-06-14T11:56:36;32.90;29.60
19090;DHT22;9677;50.656;13.064;2023-06-14T11:59:06;33.00;29.40
19090;DHT22;9677;50.656;13.064;2023-06-14T12:01:37;33.00;29.10
19090;DHT22;9677;50.656;13.064;2023-06-14T12:04:06;33.10;28.80
19090;DHT22;9677;50.656;13.064;2023-06-14T12:06:35;33.10;29.10
19090;DHT22;9677;50.656;13.064;2023-06-14T12:09:06;33.10;28.80
19090;DHT22;9677;50.656;13.064;2023-06-14T12:11:39;33.10;28.90
19090;DHT22;9677;50.656;13.064;2023-06-14T12:14:09;33.10;28.80
19090;DHT22;9677;50.656;13.064;2023-06-14T12:16:39;33.00;28.50
19090;DHT22;9677;50.656;13.064;2023-06-14T12:19:11;32.90;28.00
19090;DHT22;9677;50.656;13.064;2023-06-14T12:21:42;32.80;28.20
19090;DHT22;9677;50.656;13.064;2023-06-14T12:24:12;32.80;28.30
19090;DHT22;9677;50.656;13.064;2023-06-14T12:26:41;32.70;28.20
19090;DHT22;9677;50.656;13.064;2023-06-14T12:29:11;32.70;28.50
19090;DHT22;9677;50.656;13.064;2023-06-14T12:31:40;32.60;28.60
19090;DHT22;9677;50.656;13.064;2023-06-14T12:34:09;32.70;28.80
19090;DHT22;9677;50.656;13.064;2023-06-14T12:36:37;32.70;28.80
19090;DHT22;9677;50.656;13.064;2023-06-14T12:39:10;32.80;28.80
19090;DHT22;9677;50.656;13.064;2023-06-14T12:41:38;32.80;28.90
19090;DHT22;9677;50.656;13.064;2023-06-14T12:44:08;32.90;28.80
19090;DHT22;9677;50.656;13.064;2023-06-14T12:46:37;33.00;28.90
19090;DHT22;9677;50.656;13.064;2023-06-14T12:49:08;33.10;28.80
19090;DHT22;9677;50.656;13.064;2023-06-14T12:51:36;33.20;28.90
19090;DHT22;9677;50.656;13.064;2023-06-14T12:54:04;33.20;28.40
19090;DHT22;9677;50.656;13.064;2023-06-14T12:56:33;33.30;28.40
19090;DHT22;9677;50.656;13.064;2023-06-14T12:59:01;33.30;28.20
19090;DHT22;9677;50.656;13.064;2023-06-14T13:01:29;33.30;28.00
19090;DHT22;9677;50.656;13.064;2023-06-14T13:03:58;33.20;27.90
19090;DHT22;9677;50.656;13.064;2023-06-14T13:06:27;33.20;27.60
19090;DHT22;9677;50.656;13.064;2023-06-14T13:08:56;33.00;27.70
19090;DHT22;9677;50.656;13.064;2023-06-14T13:11:25;32.90;27.60
19090;DHT22;9677;50.656;13.064;2023-06-14T13:13:53;32.70;27.40
19090;DHT22;9677;50.656;13.064;2023-06-14T13:16:21;32.50;27.50
19090;DHT22;9677;50.656;13.064;2023-06-14T13:18:50;32.30;27.70
19090;DHT22;9677;50.656;13.064;2023-06-14T13:21:19;32.10;27.80
19090;DHT22;9677;50.656;13.064;2023-06-14T13:23:47;31.90;27.80
19090;DHT22;9677;50.656;13.064;2023-06-14T13:26:15;31.80;28.10
19090;DHT22;9677;50.656;13.064;2023-06-14T13:28:45;31.60;28.10
19090;DHT22;9677;50.656;13.064;2023-06-14T13:31:13;31.60;28.00
19090;DHT22;9677;50.656;13.064;2023-06-14T13:33:41;31.50;28.20
19090;DHT22;9677;50.656;13.064;2023-06-14T13:36:09;31.50;28.40
19090;DHT22;9677;50.656;13.064;2023-06-14T13:38:39;31.30;28.40
19090;DHT22;9677;50.656;13.064;2023-06-14T13:41:07;31.20;28.60
19090;DHT22;9677;50.656;13.064;2023-06-14T13:43:35;31.10;28.60
19090;DHT22;9677;50.656;13.064;2023-06-14T13:46:03;31.20;28.90
19090;DHT22;9677;50.656;13.064;2023-06-14T13:48:31;31.10;29.00
19090;DHT22;9677;50.656;13.064;2023-06-14T13:51:00;31.10;29.10
19090;DHT22;9677;50.656;13.064;2023-06-14T13:53:30;31.10;29.10
19090;DHT22;9677;50.656;13.064;2023-06-14T13:56:00;31.20;29.00
19090;DHT22;9677;50.656;13.064;2023-06-14T13:58:28;31.30;28.90
19090;DHT22;9677;50.656;13.064;2023-06-14T14:00:56;31.30;28.80
19090;DHT22;9677;50.656;13.064;2023-06-14T14:03:26;31.20;28.70
19090;DHT22;9677;50.656;13.064;2023-06-14T14:05:54;31.20;28.90
19090;DHT22;9677;50.656;13.064;2023-06-14T14:08:23;31.20;28.90
19090;DHT22;9677;50.656;13.064;2023-06-14T14:10:51;31.20;28.70
19090;DHT22;9677;50.656;13.064;2023-06-14T14:13:20;31.20;28.70
19090;DHT22;9677;50.656;13.064;2023-06-14T14:15:48;31.20;28.90
19090;DHT22;9677;50.656;13.064;2023-06-14T14:18:17;31.20;28.90
19090;DHT22;9677;50.656;13.064;2023-06-14T14:20:47;31.10;28.80
19090;DHT22;9677;50.656;13.064;2023-06-14T14:23:15;31.10;28.90
19090;DHT22;9677;50.656;13.064;2023-06-14T14:25:44;31.10;28.90
19090;DHT22;9677;50.656;13.064;2023-06-14T14:28:12;30.90;29.00
19090;DHT22;9677;50.656;13.064;2023-06-14T14:30:43;31.00;29.10
19090;DHT22;9677;50.656;13.064;2023-06-14T14:33:12;30.90;29.10
19090;DHT22;9677;50.656;13.064;2023-06-14T14:35:42;30.90;29.00
19090;DHT22;9677;50.656;13.064;2023-06-14T14:38:12;30.90;29.00
19090;DHT22;9677;50.656;13.064;2023-06-14T14:40:41;30.90;29.10
19090;DHT22;9677;50.656;13.064;2023-06-14T14:43:09;30.90;29.00
19090;DHT22;9677;50.656;13.064;2023-06-14T14:45:37;30.80;28.90
19090;DHT22;9677;50.656;13.064;2023-06-14T14:48:06;30.70;28.90
19090;DHT22;9677;50.656;13.064;2023-06-14T14:50:35;30.70;29.00
19090;DHT22;9677;50.656;13.064;2023-06-14T14:53:03;30.60;29.10
19090;DHT22;9677;50.656;13.064;2023-06-14T14:55:32;30.60;29.10
19090;DHT22;9677;50.656;13.064;2023-06-14T14:58:03;30.50;29.10
19090;DHT22;9677;50.656;13.064;2023-06-14T15:00:31;30.40;29.00
19090;DHT22;9677;50.656;13.064;2023-06-14T15:02:59;30.40;29.00
19090;DHT22;9677;50.656;13.064;2023-06-14T15:05:29;30.30;29.10
19090;DHT22;9677;50.656;13.064;2023-06-14T15:07:57;30.30;29.20
19090;DHT22;9677;50.656;13.064;2023-06-14T15:10:25;30.20;29.10
19090;DHT22;9677;50.656;13.064;2023-06-14T15:12:53;30.20;29.20
19090;DHT22;9677;50.656;13.064;2023-06-14T15:15:21;30.20;29.40
19090;DHT22;9677;50.656;13.064;2023-06-14T15:17:50;30.20;29.30
19090;DHT22;9677;50.656;13.064;2023-06-14T15:20:18;30.20;29.40
19090;DHT22;9677;50.656;13.064;2023-06-14T15:22:47;30.20;29.50
19090;DHT22;9677;50.656;13.064;2023-06-14T15:25:16;30.30;29.60
19090;DHT22;9677;50.656;13.064;2023-06-14T15:27:45;30.30;29.50
19090;DHT22;9677;50.656;13.064;2023-06-14T15:30:13;30.30;29.50
19090;DHT22;9677;50.656;13.064;2023-06-14T15:32:42;30.30;29.50
19090;DHT22;9677;50.656;13.064;2023-06-14T15:35:10;30.30;29.50
19090;DHT22;9677;50.656;13.064;2023-06-14T15:37:38;30.30;29.40
19090;DHT22;9677;50.656;13.064;2023-06-14T15:40:09;30.40;29.40
19090;DHT22;9677;50.656;13.064;2023-06-14T15:42:37;30.30;29.10
19090;DHT22;9677;50.656;13.064;2023-06-14T15:45:06;30.30;29.20
19090;DHT22;9677;50.656;13.064;2023-06-14T15:47:35;30.20;29.20
19090;DHT22;9677;50.656;13.064;2023-06-14T15:50:03;30.10;29.30